createdAt,value
2022-12-19T00:03:33.584Z,-3.02
2022-12-19T00:06:04.282Z,-2.90
2022-12-19T00:08:31.223Z,-2.85
2022-12-19T00:11:01.057Z,-2.98
2022-12-19T00:13:31.184Z,-2.85
2022-12-19T00:16:26.095Z,-2.84
2022-12-19T00:18:55.399Z,-2.91
2022-12-19T00:21:24.622Z,-2.90
2022-12-19T00:23:51.898Z,-2.98
2022-12-19T00:26:20.450Z,-2.95
2022-12-19T00:28:49.751Z,-2.94
2022-12-19T00:31:18.447Z,-2.92
2022-12-19T00:33:45.342Z,-2.82
2022-12-19T00:36:15.041Z,-2.83
2022-12-19T00:38:44.161Z,-3.02
2022-12-19T00:41:14.171Z,-2.83
2022-12-19T00:43:44.161Z,-2.86
2022-12-19T00:46:14.084Z,-2.77
2022-12-19T00:48:42.281Z,-2.71
2022-12-19T00:51:15.862Z,-2.70
2022-12-19T00:53:43.384Z,-2.84
2022-12-19T00:56:19.181Z,-2.68
2022-12-19T00:58:47.381Z,-2.79
2022-12-19T01:01:27.363Z,-2.79
2022-12-19T01:04:26.553Z,-2.96
2022-12-19T01:06:41.311Z,-2.87
2022-12-19T01:09:10.391Z,-2.71
2022-12-19T01:12:03.211Z,-2.68
2022-12-19T01:14:29.904Z,-2.93
2022-12-19T01:16:56.643Z,-2.75
2022-12-19T01:19:23.387Z,-2.90
2022-12-19T01:21:50.114Z,-2.86
2022-12-19T01:24:19.242Z,-2.84
2022-12-19T01:26:46.684Z,-2.73
2022-12-19T01:29:13.452Z,-2.78
2022-12-19T01:31:40.280Z,-2.81
2022-12-19T01:34:07.101Z,-3.05
2022-12-19T01:36:34.940Z,-2.76
2022-12-19T01:39:06.769Z,-2.75
2022-12-19T01:41:33.543Z,-2.77
2022-12-19T01:44:01.773Z,-2.83
2022-12-19T01:46:44.717Z,-2.77
2022-12-19T01:49:20.929Z,-2.71
2022-12-19T01:51:53.869Z,-2.72
2022-12-19T01:54:25.620Z,-2.82
2022-12-19T01:56:55.274Z,-2.96
2022-12-19T01:59:46.085Z,-2.83
2022-12-19T02:02:48.965Z,-2.74
2022-12-19T02:05:15.909Z,-2.77
2022-12-19T02:07:44.175Z,-2.80
2022-12-19T02:10:11.195Z,-2.66
2022-12-19T02:12:41.812Z,-2.62
2022-12-19T02:15:09.631Z,-2.75
2022-12-19T02:18:01.820Z,-2.74
2022-12-19T02:21:08.546Z,-2.71
2022-12-19T02:24:00.100Z,-2.69
2022-12-19T02:26:35.861Z,-2.68
2022-12-19T02:29:28.761Z,-2.71
2022-12-19T02:32:12.890Z,-2.68
2022-12-19T02:34:44.669Z,-2.73
2022-12-19T02:37:18.303Z,-2.73
2022-12-19T02:40:05.627Z,-2.64
2022-12-19T02:42:37.947Z,-2.72
2022-12-19T02:45:08.184Z,-2.65
2022-12-19T02:47:35.724Z,-2.66
2022-12-19T02:50:04.572Z,-2.72
2022-12-19T02:52:31.297Z,-2.69
2022-12-19T02:55:03.340Z,-2.75
2022-12-19T02:57:33.155Z,-2.73
2022-12-19T03:00:14.233Z,-2.67
2022-12-19T03:02:46.609Z,-2.71
2022-12-19T03:05:49.048Z,-2.64
2022-12-19T03:08:43.430Z,-2.66
2022-12-19T03:11:14.979Z,-2.79
2022-12-19T03:13:44.697Z,-2.74
2022-12-19T03:16:12.609Z,-2.87
2022-12-19T03:18:40.472Z,-2.71
2022-12-19T03:21:15.854Z,-2.69
2022-12-19T03:23:44.878Z,-2.57
2022-12-19T03:26:17.940Z,-2.76
2022-12-19T03:29:03.708Z,-2.66
2022-12-19T03:31:33.438Z,-2.68
2022-12-19T03:34:20.971Z,-2.62
2022-12-19T03:36:53.425Z,-2.74
2022-12-19T03:39:22.098Z,-2.92
2022-12-19T03:42:09.471Z,-2.71
2022-12-19T03:44:39.620Z,-2.61
2022-12-19T03:47:10.829Z,-2.63
2022-12-19T03:49:37.891Z,-2.76
2022-12-19T03:52:23.415Z,-2.73
2022-12-19T03:55:13.494Z,-2.75
2022-12-19T03:58:02.515Z,-2.83
2022-12-19T04:00:35.645Z,-2.71
2022-12-19T04:03:04.250Z,-2.83
2022-12-19T04:05:32.988Z,-2.86
2022-12-19T04:08:04.241Z,-2.82
2022-12-19T04:10:38.521Z,-2.80
2022-12-19T04:13:12.124Z,-2.74
2022-12-19T04:15:57.833Z,-2.72
2022-12-19T04:18:25.086Z,-2.83
2022-12-19T04:21:11.827Z,-2.81
2022-12-19T04:23:44.094Z,-2.82
2022-12-19T04:26:14.126Z,-2.81
2022-12-19T04:28:47.150Z,-2.63
2022-12-19T04:31:15.563Z,-2.64
2022-12-19T04:33:42.719Z,-2.65
2022-12-19T04:36:11.146Z,-2.53
2022-12-19T04:38:38.064Z,-2.43
2022-12-19T04:41:05.015Z,-2.68
2022-12-19T04:43:31.795Z,-2.76
2022-12-19T04:45:58.580Z,-3.12
2022-12-19T04:48:26.151Z,-2.88
2022-12-19T04:50:53.204Z,-2.74
2022-12-19T04:53:19.902Z,-2.50
2022-12-19T04:55:46.701Z,-2.69
2022-12-19T04:58:17.618Z,-2.71
2022-12-19T05:00:47.098Z,-2.67
2022-12-19T05:03:14.849Z,-2.69
2022-12-19T05:05:41.685Z,-2.60
2022-12-19T05:08:08.974Z,-2.65
2022-12-19T05:10:38.014Z,-2.66
2022-12-19T05:13:04.778Z,-2.48
2022-12-19T05:15:31.537Z,-2.63
2022-12-19T05:17:58.281Z,-2.61
2022-12-19T05:20:25.099Z,-2.65
2022-12-19T05:22:51.843Z,-2.67
2022-12-19T05:25:18.578Z,-2.71
2022-12-19T05:27:45.309Z,-2.58
2022-12-19T05:30:12.396Z,-2.64
2022-12-19T05:32:39.182Z,-2.70
2022-12-19T05:35:06.374Z,-2.79
2022-12-19T05:37:35.247Z,-2.65
2022-12-19T05:40:02.233Z,-2.87
2022-12-19T05:42:29.035Z,-2.84
2022-12-19T05:44:58.119Z,-2.77
2022-12-19T05:47:25.240Z,-2.90
2022-12-19T05:49:58.096Z,-2.74
2022-12-19T05:52:24.872Z,-2.70
2022-12-19T05:54:52.080Z,-2.78
2022-12-19T05:57:18.891Z,-2.92
2022-12-19T05:59:45.604Z,-2.92
2022-12-19T06:02:12.476Z,-3.04
2022-12-19T06:04:39.274Z,-3.24
2022-12-19T06:07:06.011Z,-3.03
2022-12-19T06:09:32.771Z,-2.95
2022-12-19T06:11:59.547Z,-3.10
2022-12-19T06:14:26.828Z,-3.25
2022-12-19T06:16:53.557Z,-3.06
2022-12-19T06:19:20.876Z,-3.28
2022-12-19T06:21:48.641Z,-3.31
2022-12-19T06:24:15.718Z,-3.25
2022-12-19T06:26:43.032Z,-3.44
2022-12-19T06:29:09.775Z,-3.11
2022-12-19T06:31:36.654Z,-3.10
2022-12-19T06:34:03.511Z,-3.09
2022-12-19T06:36:31.599Z,-3.17
2022-12-19T06:38:58.973Z,-3.04
2022-12-19T06:41:44.647Z,-3.11
2022-12-19T06:44:15.510Z,-3.15
2022-12-19T06:46:42.839Z,-3.01
2022-12-19T06:49:11.351Z,-2.90
2022-12-19T06:51:38.234Z,-2.86
2022-12-19T06:54:05.259Z,-2.77
2022-12-19T06:56:39.579Z,-2.76
2022-12-19T06:59:07.533Z,-2.83
2022-12-19T07:02:11.360Z,-2.67
2022-12-19T07:04:46.704Z,-2.63
2022-12-19T07:07:13.964Z,-2.79
2022-12-19T07:09:40.999Z,-2.58
2022-12-19T07:12:08.323Z,-2.53
2022-12-19T07:14:35.214Z,-2.57
2022-12-19T07:17:03.345Z,-2.65
2022-12-19T07:19:32.059Z,-2.54
2022-12-19T07:22:00.527Z,-2.51
2022-12-19T07:24:27.516Z,-2.59
2022-12-19T07:26:54.318Z,-2.47
2022-12-19T07:29:21.071Z,-2.57
2022-12-19T07:31:47.863Z,-2.44
2022-12-19T07:34:14.668Z,-2.34
2022-12-19T07:36:41.452Z,-2.42
2022-12-19T07:39:08.314Z,-2.51
2022-12-19T07:41:38.743Z,-2.25
2022-12-19T07:44:06.804Z,-2.43
2022-12-19T07:46:33.539Z,-2.19
2022-12-19T07:49:00.923Z,-2.33
2022-12-19T07:51:28.537Z,-2.32
2022-12-19T07:53:55.308Z,-2.46
2022-12-19T07:56:22.262Z,-2.30
2022-12-19T07:58:49.154Z,-2.14
2022-12-19T08:01:16.090Z,-2.47
2022-12-19T08:03:43.029Z,-2.14
2022-12-19T08:06:10.304Z,-2.06
2022-12-19T08:08:37.994Z,-1.95
2022-12-19T08:11:22.491Z,-1.94
2022-12-19T08:13:49.718Z,-1.96
2022-12-19T08:16:16.547Z,-1.94
2022-12-19T08:18:43.593Z,-1.71
2022-12-19T08:21:11.190Z,-1.67
2022-12-19T08:23:40.951Z,-1.63
2022-12-19T08:26:11.657Z,-1.71
2022-12-19T08:28:38.672Z,-1.56
2022-12-19T08:31:11.182Z,-1.66
2022-12-19T08:33:38.604Z,-1.59
2022-12-19T08:36:07.083Z,-1.67
2022-12-19T08:38:34.967Z,-1.52
2022-12-19T08:41:02.136Z,-1.76
2022-12-19T08:43:29.265Z,-1.56
2022-12-19T08:45:56.529Z,-1.14
2022-12-19T08:48:24.043Z,-1.34
2022-12-19T08:50:50.850Z,-0.98
2022-12-19T08:53:22.763Z,-1.00
2022-12-19T08:56:00.625Z,-1.00
2022-12-19T08:58:29.989Z,-1.19
2022-12-19T09:01:05.228Z,-1.60
2022-12-19T09:03:35.268Z,-1.26
2022-12-19T09:06:20.214Z,-1.23
2022-12-19T09:08:47.161Z,-1.39
2022-12-19T09:11:17.182Z,-1.30
2022-12-19T09:13:45.100Z,-1.04
2022-12-19T09:16:16.207Z,-0.91
2022-12-19T09:18:48.788Z,-1.20
2022-12-19T09:21:17.367Z,-1.07
2022-12-19T09:23:49.105Z,-1.12
2022-12-19T09:26:17.446Z,-0.84
2022-12-19T09:28:46.457Z,-0.86
2022-12-19T09:31:16.621Z,-0.73
2022-12-19T09:33:44.081Z,-0.85
2022-12-19T09:36:17.143Z,-0.82
2022-12-19T09:38:44.406Z,-0.95
2022-12-19T09:41:15.835Z,-0.94
2022-12-19T09:43:56.475Z,-0.99
2022-12-19T09:46:45.468Z,-1.16
2022-12-19T09:49:25.153Z,-0.82
2022-12-19T09:52:13.215Z,-0.88
2022-12-19T09:54:45.978Z,-0.80
2022-12-19T09:57:23.792Z,-0.80
2022-12-19T10:00:02.254Z,-0.90
2022-12-19T10:02:47.720Z,-0.82
2022-12-19T10:06:52.534Z,-0.68
2022-12-19T10:08:54.985Z,-1.12
2022-12-19T10:12:44.698Z,-0.99
2022-12-19T10:14:41.911Z,-0.70
2022-12-19T10:17:34.316Z,-0.92
2022-12-19T10:20:42.773Z,-1.00
2022-12-19T10:23:45.626Z,-0.97
2022-12-19T10:26:29.938Z,-0.95
2022-12-19T10:28:57.074Z,-0.99
2022-12-19T10:31:42.003Z,-0.90
2022-12-19T10:34:22.609Z,-0.90
2022-12-19T10:39:50.837Z,-1.12
2022-12-19T10:42:33.693Z,-1.03
2022-12-19T10:45:09.931Z,-1.21
2022-12-19T10:47:37.372Z,-1.09
2022-12-19T10:50:09.526Z,-1.10
2022-12-19T10:52:54.676Z,-1.09
2022-12-19T10:55:40.553Z,-1.21
2022-12-19T10:58:35.189Z,-1.08
2022-12-19T11:01:10.483Z,-1.13
2022-12-19T11:03:38.988Z,-1.22
2022-12-19T11:06:06.566Z,-1.25
2022-12-19T11:08:36.172Z,-1.22
2022-12-19T11:12:01.940Z,-1.15
2022-12-19T11:18:17.128Z,-1.18
2022-12-19T11:19:20.740Z,-1.21
2022-12-19T11:29:31.227Z,-1.10
2022-12-19T11:29:54.651Z,-1.18
2022-12-19T11:30:59.586Z,-1.09
2022-12-19T11:30:59.586Z,-1.10
2022-12-19T11:34:24.144Z,-1.08
2022-12-19T11:37:46.555Z,-0.99
2022-12-19T11:40:32.850Z,-1.02
2022-12-19T11:43:42.683Z,-1.16
2022-12-19T11:46:21.720Z,-0.86
2022-12-19T11:49:34.968Z,-0.97
2022-12-19T11:53:03.285Z,-1.08
2022-12-19T11:55:28.461Z,-1.04
2022-12-19T11:57:55.495Z,-1.05
2022-12-19T12:00:24.896Z,-0.95
2022-12-19T12:03:21.667Z,-0.97
2022-12-19T12:05:50.291Z,-1.13
2022-12-19T12:10:43.594Z,-1.19
2022-12-19T12:13:35.590Z,-1.18
2022-12-19T12:24:15.910Z,-1.18
2022-12-19T12:29:39.843Z,-0.99
2022-12-19T12:31:20.597Z,-0.96
2022-12-19T12:32:02.522Z,-0.94
2022-12-19T12:32:03.192Z,-1.00
2022-12-19T12:32:04.668Z,-0.84
2022-12-19T12:35:11.082Z,-0.87
2022-12-19T12:38:36.851Z,-0.77
2022-12-19T12:42:04.044Z,-0.86
2022-12-19T12:44:45.825Z,-0.80
2022-12-19T12:47:22.742Z,-0.76
2022-12-19T12:49:54.909Z,-0.94
2022-12-19T12:52:33.692Z,-0.96
2022-12-19T12:55:01.867Z,-0.82
2022-12-19T12:57:28.788Z,-0.86
2022-12-19T13:00:31.713Z,-0.85
2022-12-19T13:03:06.159Z,-0.77
2022-12-19T13:05:36.674Z,-0.94
2022-12-19T13:08:26.204Z,-0.83
2022-12-19T13:11:04.168Z,-0.86
2022-12-19T13:13:55.136Z,-0.93
2022-12-19T13:16:44.833Z,-0.98
2022-12-19T13:19:28.431Z,-1.04
2022-12-19T13:22:05.157Z,-1.05
2022-12-19T13:24:55.065Z,-1.14
2022-12-19T13:27:21.862Z,-1.00
2022-12-19T13:30:00.517Z,-0.89
2022-12-19T13:32:54.663Z,-1.03
2022-12-19T13:36:57.367Z,-0.93
2022-12-19T13:39:59.747Z,-0.97
2022-12-19T13:41:45.555Z,-1.12
2022-12-19T13:44:12.505Z,-0.99
2022-12-19T13:46:42.660Z,-1.18
2022-12-19T13:49:12.581Z,-1.26
2022-12-19T13:51:46.796Z,-1.33
2022-12-19T13:54:26.991Z,-1.25
2022-12-19T13:56:55.556Z,-1.36
2022-12-19T13:59:26.839Z,-1.40
2022-12-19T14:01:55.077Z,-1.32
2022-12-19T14:04:33.577Z,-1.28
2022-12-19T14:07:04.043Z,-1.41
2022-12-19T14:11:28.592Z,-1.37
2022-12-19T14:13:46.862Z,-1.41
2022-12-19T14:15:34.506Z,-1.40
2022-12-19T14:18:44.666Z,-1.44
2022-12-19T14:22:09.946Z,-1.41
2022-12-19T14:24:21.739Z,-1.44
2022-12-19T14:28:19.132Z,-1.52
2022-12-19T14:30:27.901Z,-1.42
2022-12-19T14:33:43.683Z,-1.51
2022-12-19T14:35:47.805Z,-1.55
2022-12-19T14:39:23.844Z,-1.54
2022-12-19T14:42:01.077Z,-1.64
2022-12-19T14:52:08.041Z,-1.59
2022-12-19T14:52:34.220Z,-1.62
2022-12-19T14:54:24.731Z,-1.58
2022-12-19T14:54:37.574Z,-1.69
2022-12-19T14:58:57.638Z,-1.74
2022-12-19T15:01:28.157Z,-1.67
2022-12-19T15:04:50.341Z,-1.75
2022-12-19T15:07:07.233Z,-1.80
2022-12-19T15:11:09.296Z,-1.77
2022-12-19T15:14:49.362Z,-1.80
2022-12-19T15:15:59.290Z,-1.65
2022-12-19T15:18:29.272Z,-1.71
2022-12-19T15:20:59.357Z,-1.80
2022-12-19T15:23:26.547Z,-1.61
2022-12-19T15:26:03.845Z,-1.65
2022-12-19T15:28:52.639Z,-1.74
2022-12-19T15:31:34.982Z,-1.75
2022-12-19T15:36:58.303Z,-1.81
2022-12-19T15:39:26.730Z,-1.80
2022-12-19T15:41:56.440Z,-1.82
2022-12-19T15:44:36.812Z,-1.77
2022-12-19T15:47:06.711Z,-1.76
2022-12-19T15:49:35.373Z,-1.72
2022-12-19T15:52:02.949Z,-1.80
2022-12-19T15:57:38.634Z,-1.86
2022-12-19T16:00:08.725Z,-1.87
2022-12-19T16:05:25.456Z,-1.93
2022-12-19T16:07:52.821Z,-1.79
2022-12-19T16:10:19.621Z,-1.92
2022-12-19T16:12:53.943Z,-1.88
2022-12-19T16:15:29.572Z,-1.88
2022-12-19T16:17:58.157Z,-1.89
2022-12-19T16:20:28.733Z,-1.86
2022-12-19T16:22:55.785Z,-1.93
2022-12-19T16:25:27.626Z,-1.92
2022-12-19T16:27:58.458Z,-1.81
2022-12-19T16:30:33.647Z,-1.91
2022-12-19T16:33:00.519Z,-1.82
2022-12-19T16:36:02.494Z,-1.84
2022-12-19T16:38:16.935Z,-1.86
2022-12-19T16:40:44.673Z,-1.85
2022-12-19T16:43:17.457Z,-1.97
2022-12-19T16:45:45.294Z,-1.80
2022-12-19T16:48:21.950Z,-1.84
2022-12-19T16:50:49.667Z,-1.85
2022-12-19T16:53:17.053Z,-1.83
2022-12-19T16:55:45.824Z,-1.93
2022-12-19T16:58:20.511Z,-1.89
2022-12-19T17:00:47.878Z,-1.88
2022-12-19T17:03:27.775Z,-1.80
2022-12-19T17:05:55.779Z,-1.85
2022-12-19T17:08:23.249Z,-1.99
2022-12-19T17:10:50.581Z,-1.98
2022-12-19T17:13:21.297Z,-1.99
2022-12-19T17:15:56.043Z,-1.90
2022-12-19T17:18:35.735Z,-1.92
2022-12-19T17:21:02.860Z,-1.89
2022-12-19T17:23:32.713Z,-1.93
2022-12-19T17:26:00.572Z,-1.93
2022-12-19T17:28:28.875Z,-1.82
2022-12-19T17:30:57.928Z,-1.90
2022-12-19T17:33:36.721Z,-1.89
2022-12-19T17:36:06.017Z,-1.91
2022-12-19T17:38:33.931Z,-2.02
2022-12-19T17:41:00.865Z,-2.06
2022-12-19T17:43:27.642Z,-1.97
2022-12-19T17:45:54.460Z,-2.08
2022-12-19T17:48:33.063Z,-1.90
2022-12-19T17:51:00.306Z,-1.92
2022-12-19T17:53:27.268Z,-2.07
2022-12-19T17:55:54.037Z,-2.07
2022-12-19T18:01:29.568Z,-2.09
2022-12-19T18:03:56.445Z,-2.31
2022-12-19T18:06:23.194Z,-2.23
2022-12-19T18:08:50.035Z,-2.41
2022-12-19T18:11:26.492Z,-2.24
2022-12-19T18:13:54.051Z,-2.10
2022-12-19T18:16:27.016Z,-2.29
2022-12-19T18:18:54.174Z,-2.07
2022-12-19T18:21:24.536Z,-2.02
2022-12-19T18:23:51.803Z,-1.89
2022-12-19T18:26:19.080Z,-1.95
2022-12-19T18:28:46.253Z,-2.21
2022-12-19T18:31:16.890Z,-2.14
2022-12-19T18:33:46.986Z,-1.96
2022-12-19T18:36:24.174Z,-2.09
2022-12-19T18:38:52.138Z,-1.98
2022-12-19T18:41:19.892Z,-1.92
2022-12-19T18:43:47.160Z,-2.02
2022-12-19T18:46:36.098Z,-1.99
2022-12-19T18:49:03.843Z,-2.12
2022-12-19T18:51:30.907Z,-2.07
2022-12-19T18:53:57.991Z,-2.13
2022-12-19T18:56:24.769Z,-2.02
2022-12-19T18:58:51.642Z,-2.11
2022-12-19T19:01:22.714Z,-2.03
2022-12-19T19:03:55.351Z,-1.88
2022-12-19T19:06:28.299Z,-1.87
2022-12-19T19:08:59.309Z,-1.94
2022-12-19T19:11:27.038Z,-1.98
2022-12-19T19:13:53.923Z,-2.04
2022-12-19T19:16:24.912Z,-2.09
2022-12-19T19:18:56.501Z,-2.09
2022-12-19T19:21:27.873Z,-1.95
2022-12-19T19:24:04.177Z,-2.01
2022-12-19T19:26:31.219Z,-2.00
2022-12-19T19:28:59.737Z,-2.07
2022-12-19T19:31:29.347Z,-2.25
2022-12-19T19:34:01.343Z,-2.15
2022-12-19T19:36:31.713Z,-2.14
2022-12-19T19:38:58.780Z,-2.18
2022-12-19T19:41:30.196Z,-2.26
2022-12-19T19:43:58.978Z,-2.26
2022-12-19T19:46:27.440Z,-2.26
2022-12-19T19:48:54.821Z,-2.17
2022-12-19T19:51:21.892Z,-2.15
2022-12-19T19:53:49.351Z,-2.13
2022-12-19T19:56:16.692Z,-2.23
2022-12-19T19:58:43.497Z,-2.15
2022-12-19T20:01:14.650Z,-2.21
2022-12-19T20:03:45.382Z,-2.47
2022-12-19T20:06:12.706Z,-2.05
2022-12-19T20:08:40.796Z,-1.96
2022-12-19T20:11:11.122Z,-2.01
2022-12-19T20:13:38.724Z,-2.21
2022-12-19T20:16:08.782Z,-2.06
2022-12-19T20:18:36.470Z,-2.07
2022-12-19T20:21:05.595Z,-2.28
2022-12-19T20:23:36.956Z,-2.05
2022-12-19T20:26:05.612Z,-2.04
2022-12-19T20:28:33.150Z,-2.11
2022-12-19T20:31:00.099Z,-1.95
2022-12-19T20:33:27.366Z,-1.99
2022-12-19T20:36:06.314Z,-1.94
2022-12-19T20:38:33.394Z,-1.95
2022-12-19T20:41:00.362Z,-2.01
2022-12-19T20:43:27.176Z,-1.97
2022-12-19T20:46:01.898Z,-1.92
2022-12-19T20:48:28.763Z,-2.05
2022-12-19T20:50:59.870Z,-2.01
2022-12-19T20:53:27.307Z,-1.83
2022-12-19T20:55:58.145Z,-1.86
2022-12-19T20:58:30.280Z,-1.94
2022-12-19T21:01:02.705Z,-1.95
2022-12-19T21:03:30.474Z,-2.00
2022-12-19T21:05:57.913Z,-1.94
2022-12-19T21:08:25.920Z,-2.09
2022-12-19T21:10:53.428Z,-2.09
2022-12-19T21:13:21.531Z,-2.12
2022-12-19T21:15:55.522Z,-1.94
2022-12-19T21:18:23.428Z,-2.06
2022-12-19T21:20:52.588Z,-1.98
2022-12-19T21:23:19.723Z,-1.90
2022-12-19T21:25:46.467Z,-1.97
2022-12-19T21:28:13.581Z,-1.91
2022-12-19T21:30:40.357Z,-1.82
2022-12-19T21:33:07.151Z,-2.04
2022-12-19T21:35:34.833Z,-1.90
2022-12-19T21:38:01.979Z,-1.95
2022-12-19T21:40:28.714Z,-1.92
2022-12-19T21:42:55.505Z,-1.86
2022-12-19T21:45:22.267Z,-1.95
2022-12-19T21:47:49.120Z,-2.01
2022-12-19T21:50:15.893Z,-1.88
2022-12-19T21:52:42.650Z,-1.93
2022-12-19T21:55:10.033Z,-1.83
2022-12-19T21:57:41.187Z,-1.89
2022-12-19T22:00:10.694Z,-1.86
2022-12-19T22:02:37.627Z,-1.93
2022-12-19T22:05:05.736Z,-1.86
2022-12-19T22:07:33.277Z,-1.78
2022-12-19T22:10:00.262Z,-1.88
2022-12-19T22:12:27.024Z,-2.00
2022-12-19T22:14:53.762Z,-2.20
2022-12-19T22:17:20.495Z,-1.95
2022-12-19T22:19:47.266Z,-1.90
2022-12-19T22:22:14.179Z,-1.86
2022-12-19T22:24:40.931Z,-2.00
2022-12-19T22:27:07.714Z,-1.86
2022-12-19T22:29:36.732Z,-1.85
2022-12-19T22:32:04.855Z,-1.86
2022-12-19T22:34:31.689Z,-1.83
2022-12-19T22:36:58.450Z,-2.09
2022-12-19T22:39:25.258Z,-1.97
2022-12-19T22:41:52.195Z,-2.20
2022-12-19T22:44:21.715Z,-1.85
2022-12-19T22:46:49.330Z,-2.10
2022-12-19T22:49:16.384Z,-1.81
2022-12-19T22:51:44.337Z,-1.84
2022-12-19T22:54:13.208Z,-1.79
2022-12-19T22:56:41.994Z,-1.87
2022-12-19T22:59:11.188Z,-1.87
2022-12-19T23:01:42.712Z,-1.91
2022-12-19T23:04:12.851Z,-1.89
2022-12-19T23:06:39.928Z,-1.94
2022-12-19T23:09:08.255Z,-1.74
2022-12-19T23:11:37.539Z,-1.79
2022-12-19T23:14:06.514Z,-1.80
2022-12-19T23:16:33.655Z,-1.95
2022-12-19T23:19:00.655Z,-1.77
2022-12-19T23:21:27.988Z,-1.75
2022-12-19T23:23:55.843Z,-1.77
2022-12-19T23:26:30.112Z,-1.86
2022-12-19T23:28:59.845Z,-1.74
2022-12-19T23:31:27.932Z,-1.75
2022-12-19T23:33:56.075Z,-1.73
2022-12-19T23:36:52.661Z,-1.82
2022-12-19T23:39:11.855Z,-1.99
2022-12-19T23:41:39.377Z,-1.90
2022-12-19T23:44:06.553Z,-1.82
2022-12-19T23:46:33.300Z,-1.88
2022-12-19T23:49:00.118Z,-1.78
2022-12-19T23:51:28.440Z,-1.71
2022-12-19T23:53:56.103Z,-1.78
2022-12-19T23:56:25.818Z,-1.58
2022-12-19T23:58:53.329Z,-1.55
